sensor_id;sensor_type;location;lat;lon;timestamp;P1;durP1;ratioP1;P2;durP2;ratioP2
15285;SDS011;7744;52.172;10.668;2022-11-20T00:00:47;23.00;;;15.20;;
15285;SDS011;7744;52.172;10.668;2022-11-20T00:03:13;18.93;;;14.07;;
15285;SDS011;7744;52.172;10.668;2022-11-20T00:05:39;18.83;;;13.77;;
15285;SDS011;7744;52.172;10.668;2022-11-20T00:08:05;18.90;;;14.03;;
15285;SDS011;7744;52.172;10.668;2022-11-20T00:10:30;19.37;;;13.53;;
15285;SDS011;7744;52.172;10.668;2022-11-20T00:12:57;18.63;;;13.03;;
15285;SDS011;7744;52.172;10.668;2022-11-20T00:15:23;18.43;;;12.13;;
15285;SDS011;7744;52.172;10.668;2022-11-20T00:17:49;18.17;;;13.40;;
15285;SDS011;7744;52.172;10.668;2022-11-20T00:20:15;19.27;;;13.77;;
15285;SDS011;7744;52.172;10.668;2022-11-20T00:22:41;17.43;;;12.40;;
15285;SDS011;7744;52.172;10.668;2022-11-20T00:25:06;20.77;;;13.87;;
15285;SDS011;7744;52.172;10.668;2022-11-20T00:27:32;20.67;;;13.50;;
15285;SDS011;7744;52.172;10.668;2022-11-20T00:29:58;19.00;;;13.83;;
15285;SDS011;7744;52.172;10.668;2022-11-20T00:32:23;18.93;;;13.33;;
15285;SDS011;7744;52.172;10.668;2022-11-20T00:34:49;20.47;;;13.87;;
15285;SDS011;7744;52.172;10.668;2022-11-20T00:37:14;18.33;;;13.83;;
15285;SDS011;7744;52.172;10.668;2022-11-20T00:39:40;18.83;;;13.67;;
15285;SDS011;7744;52.172;10.668;2022-11-20T00:42:06;22.17;;;14.50;;
15285;SDS011;7744;52.172;10.668;2022-11-20T00:44:31;23.37;;;14.23;;
15285;SDS011;7744;52.172;10.668;2022-11-20T00:46:57;17.77;;;13.20;;
15285;SDS011;7744;52.172;10.668;2022-11-20T00:49:22;18.80;;;13.40;;
15285;SDS011;7744;52.172;10.668;2022-11-20T00:51:48;18.33;;;13.70;;
15285;SDS011;7744;52.172;10.668;2022-11-20T00:54:13;18.30;;;13.70;;
15285;SDS011;7744;52.172;10.668;2022-11-20T00:56:39;19.27;;;14.13;;
15285;SDS011;7744;52.172;10.668;2022-11-20T00:59:05;20.67;;;13.43;;
15285;SDS011;7744;52.172;10.668;2022-11-20T01:01:30;18.33;;;13.03;;
15285;SDS011;7744;52.172;10.668;2022-11-20T01:03:57;19.13;;;14.20;;
15285;SDS011;7744;52.172;10.668;2022-11-20T01:06:26;18.90;;;13.50;;
15285;SDS011;7744;52.172;10.668;2022-11-20T01:08:54;20.70;;;14.03;;
15285;SDS011;7744;52.172;10.668;2022-11-20T01:11:32;18.43;;;13.43;;
15285;SDS011;7744;52.172;10.668;2022-11-20T01:14:00;18.67;;;13.27;;
15285;SDS011;7744;52.172;10.668;2022-11-20T01:16:28;18.00;;;13.20;;
15285;SDS011;7744;52.172;10.668;2022-11-20T01:18:56;17.23;;;13.60;;
15285;SDS011;7744;52.172;10.668;2022-11-20T01:21:25;21.53;;;14.40;;
15285;SDS011;7744;52.172;10.668;2022-11-20T01:23:52;22.13;;;14.67;;
15285;SDS011;7744;52.172;10.668;2022-11-20T01:26:19;21.17;;;14.27;;
15285;SDS011;7744;52.172;10.668;2022-11-20T01:28:47;23.77;;;14.57;;
15285;SDS011;7744;52.172;10.668;2022-11-20T01:33:40;25.07;;;14.87;;
15285;SDS011;7744;52.172;10.668;2022-11-20T01:36:07;20.93;;;14.20;;
15285;SDS011;7744;52.172;10.668;2022-11-20T01:38:33;22.43;;;14.33;;
15285;SDS011;7744;52.172;10.668;2022-11-20T01:40:59;22.27;;;14.93;;
15285;SDS011;7744;52.172;10.668;2022-11-20T01:43:25;23.57;;;15.17;;
15285;SDS011;7744;52.172;10.668;2022-11-20T01:48:38;22.37;;;14.37;;
15285;SDS011;7744;52.172;10.668;2022-11-20T01:54:17;22.07;;;13.83;;
15285;SDS011;7744;52.172;10.668;2022-11-20T01:56:49;23.63;;;14.00;;
15285;SDS011;7744;52.172;10.668;2022-11-20T01:59:19;26.50;;;14.27;;
15285;SDS011;7744;52.172;10.668;2022-11-20T02:01:47;25.73;;;14.90;;
15285;SDS011;7744;52.172;10.668;2022-11-20T02:04:13;23.50;;;14.80;;
15285;SDS011;7744;52.172;10.668;2022-11-20T02:06:50;21.70;;;15.07;;
15285;SDS011;7744;52.172;10.668;2022-11-20T02:09:22;21.33;;;13.60;;
15285;SDS011;7744;52.172;10.668;2022-11-20T02:11:47;22.20;;;13.73;;
15285;SDS011;7744;52.172;10.668;2022-11-20T02:14:13;23.63;;;14.73;;
15285;SDS011;7744;52.172;10.668;2022-11-20T02:16:40;24.83;;;14.87;;
15285;SDS011;7744;52.172;10.668;2022-11-20T02:19:22;20.80;;;14.50;;
15285;SDS011;7744;52.172;10.668;2022-11-20T02:24:35;22.43;;;13.83;;
15285;SDS011;7744;52.172;10.668;2022-11-20T02:29:33;22.73;;;14.63;;
15285;SDS011;7744;52.172;10.668;2022-11-20T02:32:17;20.33;;;13.70;;
15285;SDS011;7744;52.172;10.668;2022-11-20T02:34:51;18.40;;;12.87;;
15285;SDS011;7744;52.172;10.668;2022-11-20T02:37:17;22.60;;;14.10;;
15285;SDS011;7744;52.172;10.668;2022-11-20T02:39:44;20.33;;;14.20;;
15285;SDS011;7744;52.172;10.668;2022-11-20T02:42:12;18.67;;;13.30;;
15285;SDS011;7744;52.172;10.668;2022-11-20T02:44:37;22.03;;;13.43;;
15285;SDS011;7744;52.172;10.668;2022-11-20T02:47:03;19.57;;;12.47;;
15285;SDS011;7744;52.172;10.668;2022-11-20T02:49:29;19.43;;;12.60;;
15285;SDS011;7744;52.172;10.668;2022-11-20T02:51:54;22.23;;;12.80;;
15285;SDS011;7744;52.172;10.668;2022-11-20T02:54:20;19.17;;;12.10;;
15285;SDS011;7744;52.172;10.668;2022-11-20T02:56:45;19.27;;;12.13;;
15285;SDS011;7744;52.172;10.668;2022-11-20T02:59:11;20.13;;;13.67;;
15285;SDS011;7744;52.172;10.668;2022-11-20T03:01:37;19.20;;;13.30;;
15285;SDS011;7744;52.172;10.668;2022-11-20T03:04:02;18.43;;;12.27;;
15285;SDS011;7744;52.172;10.668;2022-11-20T03:06:28;18.20;;;11.80;;
15285;SDS011;7744;52.172;10.668;2022-11-20T03:08:53;18.40;;;11.73;;
15285;SDS011;7744;52.172;10.668;2022-11-20T03:11:19;18.67;;;11.97;;
15285;SDS011;7744;52.172;10.668;2022-11-20T03:13:45;20.83;;;12.77;;
15285;SDS011;7744;52.172;10.668;2022-11-20T03:16:15;18.23;;;11.70;;
15285;SDS011;7744;52.172;10.668;2022-11-20T03:18:42;19.40;;;12.50;;
15285;SDS011;7744;52.172;10.668;2022-11-20T03:21:09;20.10;;;11.50;;
15285;SDS011;7744;52.172;10.668;2022-11-20T03:23:36;17.33;;;11.30;;
15285;SDS011;7744;52.172;10.668;2022-11-20T03:28:40;17.50;;;11.00;;
15285;SDS011;7744;52.172;10.668;2022-11-20T03:31:11;15.93;;;10.90;;
15285;SDS011;7744;52.172;10.668;2022-11-20T03:33:38;16.90;;;10.87;;
15285;SDS011;7744;52.172;10.668;2022-11-20T03:36:06;17.63;;;11.23;;
15285;SDS011;7744;52.172;10.668;2022-11-20T03:38:36;19.10;;;11.60;;
15285;SDS011;7744;52.172;10.668;2022-11-20T03:41:06;24.03;;;10.90;;
15285;SDS011;7744;52.172;10.668;2022-11-20T03:43:34;17.93;;;11.60;;
15285;SDS011;7744;52.172;10.668;2022-11-20T03:45:59;20.17;;;11.97;;
15285;SDS011;7744;52.172;10.668;2022-11-20T03:48:25;19.80;;;11.83;;
15285;SDS011;7744;52.172;10.668;2022-11-20T03:50:51;17.53;;;10.97;;
15285;SDS011;7744;52.172;10.668;2022-11-20T03:53:18;17.13;;;11.10;;
15285;SDS011;7744;52.172;10.668;2022-11-20T03:55:45;16.33;;;10.67;;
15285;SDS011;7744;52.172;10.668;2022-11-20T03:58:15;18.10;;;11.60;;
15285;SDS011;7744;52.172;10.668;2022-11-20T04:00:40;17.63;;;11.57;;
15285;SDS011;7744;52.172;10.668;2022-11-20T04:03:06;16.63;;;11.07;;
15285;SDS011;7744;52.172;10.668;2022-11-20T04:05:32;18.13;;;11.63;;
15285;SDS011;7744;52.172;10.668;2022-11-20T04:07:59;17.20;;;10.90;;
15285;SDS011;7744;52.172;10.668;2022-11-20T04:10:24;19.53;;;11.50;;
15285;SDS011;7744;52.172;10.668;2022-11-20T04:12:50;17.07;;;11.37;;
15285;SDS011;7744;52.172;10.668;2022-11-20T04:15:15;18.13;;;11.90;;
15285;SDS011;7744;52.172;10.668;2022-11-20T04:17:41;17.27;;;11.50;;
15285;SDS011;7744;52.172;10.668;2022-11-20T04:20:07;16.30;;;10.90;;
15285;SDS011;7744;52.172;10.668;2022-11-20T04:22:33;16.73;;;11.00;;
15285;SDS011;7744;52.172;10.668;2022-11-20T04:24:58;18.13;;;12.00;;
15285;SDS011;7744;52.172;10.668;2022-11-20T04:27:24;15.90;;;10.67;;
15285;SDS011;7744;52.172;10.668;2022-11-20T04:29:49;17.67;;;11.20;;
15285;SDS011;7744;52.172;10.668;2022-11-20T04:32:15;16.53;;;11.53;;
15285;SDS011;7744;52.172;10.668;2022-11-20T04:34:40;16.47;;;11.00;;
15285;SDS011;7744;52.172;10.668;2022-11-20T04:37:06;15.07;;;10.73;;
15285;SDS011;7744;52.172;10.668;2022-11-20T04:39:32;17.90;;;11.37;;
15285;SDS011;7744;52.172;10.668;2022-11-20T04:41:57;16.57;;;10.37;;
15285;SDS011;7744;52.172;10.668;2022-11-20T04:44:41;15.77;;;10.73;;
15285;SDS011;7744;52.172;10.668;2022-11-20T04:47:07;16.50;;;11.63;;
15285;SDS011;7744;52.172;10.668;2022-11-20T04:49:32;16.27;;;10.97;;
15285;SDS011;7744;52.172;10.668;2022-11-20T04:51:58;14.50;;;10.13;;
15285;SDS011;7744;52.172;10.668;2022-11-20T04:54:24;16.43;;;10.63;;
15285;SDS011;7744;52.172;10.668;2022-11-20T04:56:50;21.43;;;13.37;;
15285;SDS011;7744;52.172;10.668;2022-11-20T04:59:18;25.63;;;12.57;;
15285;SDS011;7744;52.172;10.668;2022-11-20T05:01:44;25.40;;;13.40;;
15285;SDS011;7744;52.172;10.668;2022-11-20T05:04:10;24.37;;;13.10;;
15285;SDS011;7744;52.172;10.668;2022-11-20T05:06:36;24.73;;;13.37;;
15285;SDS011;7744;52.172;10.668;2022-11-20T05:09:01;25.07;;;12.93;;
15285;SDS011;7744;52.172;10.668;2022-11-20T05:11:27;21.77;;;12.67;;
15285;SDS011;7744;52.172;10.668;2022-11-20T05:13:55;22.87;;;12.70;;
15285;SDS011;7744;52.172;10.668;2022-11-20T05:16:23;21.93;;;12.93;;
15285;SDS011;7744;52.172;10.668;2022-11-20T05:18:53;20.83;;;12.67;;
15285;SDS011;7744;52.172;10.668;2022-11-20T05:21:19;18.93;;;11.73;;
15285;SDS011;7744;52.172;10.668;2022-11-20T05:23:45;18.57;;;12.50;;
15285;SDS011;7744;52.172;10.668;2022-11-20T05:26:13;16.73;;;10.93;;
15285;SDS011;7744;52.172;10.668;2022-11-20T05:28:41;18.73;;;11.80;;
15285;SDS011;7744;52.172;10.668;2022-11-20T05:31:10;17.73;;;11.67;;
15285;SDS011;7744;52.172;10.668;2022-11-20T05:33:39;17.70;;;11.63;;
15285;SDS011;7744;52.172;10.668;2022-11-20T05:36:06;16.67;;;11.13;;
15285;SDS011;7744;52.172;10.668;2022-11-20T05:38:32;19.03;;;11.93;;
15285;SDS011;7744;52.172;10.668;2022-11-20T05:43:34;16.47;;;10.03;;
15285;SDS011;7744;52.172;10.668;2022-11-20T05:46:01;16.47;;;10.80;;
15285;SDS011;7744;52.172;10.668;2022-11-20T05:48:27;16.53;;;11.33;;
15285;SDS011;7744;52.172;10.668;2022-11-20T05:50:53;15.97;;;11.57;;
15285;SDS011;7744;52.172;10.668;2022-11-20T05:53:19;15.70;;;11.17;;
15285;SDS011;7744;52.172;10.668;2022-11-20T05:55:44;17.90;;;11.53;;
15285;SDS011;7744;52.172;10.668;2022-11-20T05:58:10;16.90;;;11.70;;
15285;SDS011;7744;52.172;10.668;2022-11-20T06:00:35;17.73;;;11.43;;
15285;SDS011;7744;52.172;10.668;2022-11-20T06:03:01;18.70;;;11.80;;
15285;SDS011;7744;52.172;10.668;2022-11-20T06:05:27;17.87;;;11.13;;
15285;SDS011;7744;52.172;10.668;2022-11-20T06:07:53;18.07;;;11.93;;
15285;SDS011;7744;52.172;10.668;2022-11-20T06:10:18;17.80;;;12.10;;
15285;SDS011;7744;52.172;10.668;2022-11-20T06:12:44;21.03;;;13.03;;
15285;SDS011;7744;52.172;10.668;2022-11-20T06:15:09;20.53;;;12.20;;
15285;SDS011;7744;52.172;10.668;2022-11-20T06:17:35;20.47;;;12.40;;
15285;SDS011;7744;52.172;10.668;2022-11-20T06:20:01;17.63;;;12.50;;
15285;SDS011;7744;52.172;10.668;2022-11-20T06:22:26;17.77;;;11.77;;
15285;SDS011;7744;52.172;10.668;2022-11-20T06:24:52;18.33;;;11.80;;
15285;SDS011;7744;52.172;10.668;2022-11-20T06:27:17;17.70;;;11.93;;
15285;SDS011;7744;52.172;10.668;2022-11-20T06:29:43;17.63;;;12.03;;
15285;SDS011;7744;52.172;10.668;2022-11-20T06:32:09;18.63;;;12.47;;
15285;SDS011;7744;52.172;10.668;2022-11-20T06:34:34;15.67;;;10.63;;
15285;SDS011;7744;52.172;10.668;2022-11-20T06:37:00;18.50;;;11.10;;
15285;SDS011;7744;52.172;10.668;2022-11-20T06:39:25;17.60;;;11.57;;
15285;SDS011;7744;52.172;10.668;2022-11-20T06:41:51;18.30;;;11.00;;
15285;SDS011;7744;52.172;10.668;2022-11-20T06:44:17;15.83;;;10.77;;
15285;SDS011;7744;52.172;10.668;2022-11-20T06:46:42;17.13;;;10.87;;
15285;SDS011;7744;52.172;10.668;2022-11-20T06:49:08;14.63;;;10.70;;
15285;SDS011;7744;52.172;10.668;2022-11-20T06:51:33;17.00;;;11.40;;
15285;SDS011;7744;52.172;10.668;2022-11-20T06:53:59;16.50;;;11.23;;
15285;SDS011;7744;52.172;10.668;2022-11-20T06:56:26;18.20;;;12.13;;
15285;SDS011;7744;52.172;10.668;2022-11-20T06:58:51;19.17;;;11.90;;
15285;SDS011;7744;52.172;10.668;2022-11-20T07:01:17;14.80;;;10.17;;
15285;SDS011;7744;52.172;10.668;2022-11-20T07:03:43;15.87;;;11.90;;
15285;SDS011;7744;52.172;10.668;2022-11-20T07:06:09;18.57;;;12.30;;
15285;SDS011;7744;52.172;10.668;2022-11-20T07:08:35;16.17;;;11.90;;
15285;SDS011;7744;52.172;10.668;2022-11-20T07:11:01;17.07;;;11.40;;
15285;SDS011;7744;52.172;10.668;2022-11-20T07:13:30;16.00;;;11.47;;
15285;SDS011;7744;52.172;10.668;2022-11-20T07:15:59;18.53;;;12.33;;
15285;SDS011;7744;52.172;10.668;2022-11-20T07:18:29;14.33;;;11.20;;
15285;SDS011;7744;52.172;10.668;2022-11-20T07:20:54;18.53;;;12.63;;
15285;SDS011;7744;52.172;10.668;2022-11-20T07:23:20;15.40;;;11.57;;
15285;SDS011;7744;52.172;10.668;2022-11-20T07:25:46;16.23;;;10.30;;
15285;SDS011;7744;52.172;10.668;2022-11-20T07:28:11;15.50;;;11.83;;
15285;SDS011;7744;52.172;10.668;2022-11-20T07:30:37;16.40;;;11.27;;
15285;SDS011;7744;52.172;10.668;2022-11-20T07:33:03;14.47;;;10.93;;
15285;SDS011;7744;52.172;10.668;2022-11-20T07:35:31;14.63;;;10.73;;
15285;SDS011;7744;52.172;10.668;2022-11-20T07:37:56;14.43;;;10.90;;
15285;SDS011;7744;52.172;10.668;2022-11-20T07:40:22;14.77;;;11.53;;
15285;SDS011;7744;52.172;10.668;2022-11-20T07:42:48;16.43;;;11.43;;
15285;SDS011;7744;52.172;10.668;2022-11-20T07:45:15;14.87;;;11.07;;
15285;SDS011;7744;52.172;10.668;2022-11-20T07:47:40;15.93;;;10.60;;
15285;SDS011;7744;52.172;10.668;2022-11-20T07:50:06;13.97;;;9.83;;
15285;SDS011;7744;52.172;10.668;2022-11-20T07:52:32;12.23;;;9.53;;
15285;SDS011;7744;52.172;10.668;2022-11-20T07:54:58;13.20;;;9.17;;
15285;SDS011;7744;52.172;10.668;2022-11-20T07:57:23;13.53;;;9.80;;
15285;SDS011;7744;52.172;10.668;2022-11-20T07:59:49;13.17;;;9.70;;
15285;SDS011;7744;52.172;10.668;2022-11-20T08:02:14;13.97;;;9.53;;
15285;SDS011;7744;52.172;10.668;2022-11-20T08:04:40;14.73;;;10.57;;
15285;SDS011;7744;52.172;10.668;2022-11-20T08:07:05;13.87;;;9.53;;
15285;SDS011;7744;52.172;10.668;2022-11-20T08:09:31;13.47;;;9.70;;
15285;SDS011;7744;52.172;10.668;2022-11-20T08:11:57;13.53;;;10.17;;
15285;SDS011;7744;52.172;10.668;2022-11-20T08:14:42;14.03;;;10.80;;
15285;SDS011;7744;52.172;10.668;2022-11-20T08:17:07;13.60;;;10.13;;
15285;SDS011;7744;52.172;10.668;2022-11-20T08:19:33;11.23;;;9.83;;
15285;SDS011;7744;52.172;10.668;2022-11-20T08:21:59;12.40;;;9.33;;
15285;SDS011;7744;52.172;10.668;2022-11-20T08:24:24;12.90;;;8.93;;
15285;SDS011;7744;52.172;10.668;2022-11-20T08:26:51;30.27;;;20.43;;
15285;SDS011;7744;52.172;10.668;2022-11-20T08:29:17;26.30;;;18.63;;
15285;SDS011;7744;52.172;10.668;2022-11-20T08:31:43;20.00;;;14.17;;
15285;SDS011;7744;52.172;10.668;2022-11-20T08:34:09;22.80;;;14.47;;
15285;SDS011;7744;52.172;10.668;2022-11-20T08:36:36;19.33;;;13.93;;
15285;SDS011;7744;52.172;10.668;2022-11-20T08:39:02;16.80;;;13.30;;
15285;SDS011;7744;52.172;10.668;2022-11-20T08:41:28;16.03;;;11.87;;
15285;SDS011;7744;52.172;10.668;2022-11-20T08:44:01;14.30;;;10.43;;
15285;SDS011;7744;52.172;10.668;2022-11-20T08:46:36;15.43;;;10.57;;
15285;SDS011;7744;52.172;10.668;2022-11-20T08:49:03;13.57;;;10.27;;
15285;SDS011;7744;52.172;10.668;2022-11-20T08:51:30;13.60;;;10.83;;
15285;SDS011;7744;52.172;10.668;2022-11-20T08:53:56;15.90;;;12.87;;
15285;SDS011;7744;52.172;10.668;2022-11-20T08:56:21;18.57;;;14.37;;
15285;SDS011;7744;52.172;10.668;2022-11-20T08:58:47;17.40;;;12.87;;
15285;SDS011;7744;52.172;10.668;2022-11-20T09:01:14;11.43;;;8.97;;
15285;SDS011;7744;52.172;10.668;2022-11-20T09:03:40;13.20;;;10.10;;
15285;SDS011;7744;52.172;10.668;2022-11-20T09:06:06;12.07;;;9.70;;
15285;SDS011;7744;52.172;10.668;2022-11-20T09:08:32;64.53;;;42.93;;
15285;SDS011;7744;52.172;10.668;2022-11-20T09:10:59;24.30;;;16.07;;
15285;SDS011;7744;52.172;10.668;2022-11-20T09:13:25;25.27;;;15.17;;
15285;SDS011;7744;52.172;10.668;2022-11-20T09:15:52;41.20;;;23.13;;
15285;SDS011;7744;52.172;10.668;2022-11-20T09:18:19;33.97;;;19.27;;
15285;SDS011;7744;52.172;10.668;2022-11-20T09:20:46;18.90;;;13.40;;
15285;SDS011;7744;52.172;10.668;2022-11-20T09:23:11;17.50;;;12.73;;
15285;SDS011;7744;52.172;10.668;2022-11-20T09:25:37;19.33;;;13.87;;
15285;SDS011;7744;52.172;10.668;2022-11-20T09:28:02;19.97;;;14.33;;
15285;SDS011;7744;52.172;10.668;2022-11-20T09:30:28;15.63;;;12.10;;
15285;SDS011;7744;52.172;10.668;2022-11-20T09:32:54;12.10;;;9.77;;
15285;SDS011;7744;52.172;10.668;2022-11-20T09:35:19;10.57;;;7.63;;
15285;SDS011;7744;52.172;10.668;2022-11-20T09:37:45;10.27;;;7.53;;
15285;SDS011;7744;52.172;10.668;2022-11-20T09:40:19;9.30;;;7.27;;
15285;SDS011;7744;52.172;10.668;2022-11-20T09:54:13;12.17;;;8.83;;
15285;SDS011;7744;52.172;10.668;2022-11-20T09:56:49;9.83;;;8.40;;
15285;SDS011;7744;52.172;10.668;2022-11-20T09:59:32;8.37;;;7.20;;
15285;SDS011;7744;52.172;10.668;2022-11-20T10:01:59;9.43;;;8.27;;
15285;SDS011;7744;52.172;10.668;2022-11-20T10:04:27;9.40;;;7.77;;
15285;SDS011;7744;52.172;10.668;2022-11-20T10:07:00;8.40;;;6.47;;
15285;SDS011;7744;52.172;10.668;2022-11-20T10:09:34;7.77;;;6.47;;
15285;SDS011;7744;52.172;10.668;2022-11-20T10:12:24;12.83;;;10.87;;
15285;SDS011;7744;52.172;10.668;2022-11-20T10:15:33;8.30;;;6.87;;
15285;SDS011;7744;52.172;10.668;2022-11-20T10:21:08;6.80;;;6.10;;
15285;SDS011;7744;52.172;10.668;2022-11-20T10:26:17;8.87;;;7.20;;
15285;SDS011;7744;52.172;10.668;2022-11-20T10:31:34;7.07;;;6.33;;
15285;SDS011;7744;52.172;10.668;2022-11-20T10:34:26;8.00;;;6.93;;
15285;SDS011;7744;52.172;10.668;2022-11-20T10:37:01;8.70;;;7.80;;
15285;SDS011;7744;52.172;10.668;2022-11-20T10:39:41;7.17;;;6.07;;
15285;SDS011;7744;52.172;10.668;2022-11-20T10:42:17;7.30;;;6.30;;
15285;SDS011;7744;52.172;10.668;2022-11-20T10:45:02;8.13;;;6.37;;
15285;SDS011;7744;52.172;10.668;2022-11-20T10:47:41;8.90;;;6.40;;
15285;SDS011;7744;52.172;10.668;2022-11-20T10:50:09;8.13;;;6.83;;
15285;SDS011;7744;52.172;10.668;2022-11-20T10:52:50;7.47;;;6.50;;
15285;SDS011;7744;52.172;10.668;2022-11-20T10:58:34;7.57;;;6.73;;
15285;SDS011;7744;52.172;10.668;2022-11-20T11:03:40;7.13;;;6.20;;
15285;SDS011;7744;52.172;10.668;2022-11-20T11:06:14;6.30;;;5.70;;
15285;SDS011;7744;52.172;10.668;2022-11-20T11:08:40;8.63;;;6.93;;
15285;SDS011;7744;52.172;10.668;2022-11-20T11:13:50;7.27;;;6.07;;
15285;SDS011;7744;52.172;10.668;2022-11-20T11:16:20;8.17;;;6.90;;
15285;SDS011;7744;52.172;10.668;2022-11-20T11:18:50;20.37;;;14.57;;
15285;SDS011;7744;52.172;10.668;2022-11-20T11:21:21;9.90;;;7.53;;
15285;SDS011;7744;52.172;10.668;2022-11-20T11:24:00;10.30;;;7.07;;
15285;SDS011;7744;52.172;10.668;2022-11-20T11:26:27;9.80;;;7.57;;
15285;SDS011;7744;52.172;10.668;2022-11-20T11:28:54;11.67;;;7.67;;
15285;SDS011;7744;52.172;10.668;2022-11-20T11:31:25;11.10;;;7.53;;
15285;SDS011;7744;52.172;10.668;2022-11-20T11:33:52;11.40;;;7.70;;
15285;SDS011;7744;52.172;10.668;2022-11-20T11:36:28;10.10;;;8.00;;
15285;SDS011;7744;52.172;10.668;2022-11-20T11:38:54;8.80;;;7.07;;
15285;SDS011;7744;52.172;10.668;2022-11-20T11:41:23;9.40;;;7.10;;
15285;SDS011;7744;52.172;10.668;2022-11-20T11:44:00;9.47;;;7.37;;
15285;SDS011;7744;52.172;10.668;2022-11-20T11:46:58;10.30;;;8.03;;
15285;SDS011;7744;52.172;10.668;2022-11-20T11:49:24;12.20;;;8.97;;
15285;SDS011;7744;52.172;10.668;2022-11-20T11:57:43;10.40;;;7.80;;
15285;SDS011;7744;52.172;10.668;2022-11-20T12:00:23;12.20;;;8.13;;
15285;SDS011;7744;52.172;10.668;2022-11-20T12:02:53;11.93;;;7.80;;
15285;SDS011;7744;52.172;10.668;2022-11-20T12:08:05;9.40;;;6.27;;
15285;SDS011;7744;52.172;10.668;2022-11-20T12:11:04;9.37;;;6.20;;
15285;SDS011;7744;52.172;10.668;2022-11-20T12:13:54;8.67;;;6.63;;
15285;SDS011;7744;52.172;10.668;2022-11-20T12:16:26;10.33;;;6.57;;
15285;SDS011;7744;52.172;10.668;2022-11-20T12:18:53;7.33;;;5.97;;
15285;SDS011;7744;52.172;10.668;2022-11-20T12:21:20;6.70;;;5.43;;
15285;SDS011;7744;52.172;10.668;2022-11-20T12:37:42;6.70;;;5.93;;
15285;SDS011;7744;52.172;10.668;2022-11-20T12:40:22;7.90;;;6.10;;
15285;SDS011;7744;52.172;10.668;2022-11-20T12:43:26;7.43;;;6.50;;
15285;SDS011;7744;52.172;10.668;2022-11-20T12:46:14;7.70;;;5.90;;
15285;SDS011;7744;52.172;10.668;2022-11-20T12:51:32;7.07;;;5.87;;
15285;SDS011;7744;52.172;10.668;2022-11-20T12:57:09;6.63;;;5.03;;
15285;SDS011;7744;52.172;10.668;2022-11-20T13:02:51;8.07;;;6.03;;
15285;SDS011;7744;52.172;10.668;2022-11-20T13:06:05;10.43;;;7.50;;
15285;SDS011;7744;52.172;10.668;2022-11-20T13:08:39;8.80;;;6.37;;
15285;SDS011;7744;52.172;10.668;2022-11-20T13:11:17;8.87;;;6.53;;
15285;SDS011;7744;52.172;10.668;2022-11-20T13:19:30;11.33;;;8.40;;
15285;SDS011;7744;52.172;10.668;2022-11-20T13:21:56;8.17;;;7.00;;
15285;SDS011;7744;52.172;10.668;2022-11-20T13:24:24;10.60;;;7.37;;
15285;SDS011;7744;52.172;10.668;2022-11-20T13:29:26;8.80;;;6.87;;
15285;SDS011;7744;52.172;10.668;2022-11-20T13:32:00;9.43;;;7.10;;
15285;SDS011;7744;52.172;10.668;2022-11-20T13:34:28;11.77;;;9.20;;
15285;SDS011;7744;52.172;10.668;2022-11-20T13:36:56;13.77;;;10.30;;
15285;SDS011;7744;52.172;10.668;2022-11-20T13:39:26;10.67;;;7.90;;
15285;SDS011;7744;52.172;10.668;2022-11-20T13:41:56;10.70;;;8.27;;
15285;SDS011;7744;52.172;10.668;2022-11-20T13:44:29;13.30;;;9.53;;
15285;SDS011;7744;52.172;10.668;2022-11-20T13:47:02;12.03;;;8.63;;
15285;SDS011;7744;52.172;10.668;2022-11-20T13:49:38;9.90;;;8.30;;
15285;SDS011;7744;52.172;10.668;2022-11-20T13:57:43;10.43;;;8.90;;
15285;SDS011;7744;52.172;10.668;2022-11-20T14:00:15;11.07;;;8.60;;
15285;SDS011;7744;52.172;10.668;2022-11-20T14:02:41;13.60;;;10.07;;
15285;SDS011;7744;52.172;10.668;2022-11-20T14:05:19;11.10;;;8.30;;
15285;SDS011;7744;52.172;10.668;2022-11-20T14:07:47;9.23;;;7.70;;
15285;SDS011;7744;52.172;10.668;2022-11-20T14:10:24;8.90;;;7.57;;
15285;SDS011;7744;52.172;10.668;2022-11-20T14:12:52;14.50;;;9.73;;
15285;SDS011;7744;52.172;10.668;2022-11-20T14:15:30;12.40;;;8.90;;
15285;SDS011;7744;52.172;10.668;2022-11-20T14:17:58;10.03;;;7.20;;
15285;SDS011;7744;52.172;10.668;2022-11-20T14:20:25;7.50;;;6.60;;
15285;SDS011;7744;52.172;10.668;2022-11-20T14:22:54;9.23;;;7.27;;
15285;SDS011;7744;52.172;10.668;2022-11-20T14:25:21;10.33;;;8.10;;
15285;SDS011;7744;52.172;10.668;2022-11-20T14:27:52;11.37;;;7.53;;
15285;SDS011;7744;52.172;10.668;2022-11-20T14:30:21;10.70;;;8.20;;
15285;SDS011;7744;52.172;10.668;2022-11-20T14:33:14;13.27;;;8.03;;
15285;SDS011;7744;52.172;10.668;2022-11-20T14:35:44;10.40;;;7.90;;
15285;SDS011;7744;52.172;10.668;2022-11-20T14:38:16;10.67;;;7.33;;
15285;SDS011;7744;52.172;10.668;2022-11-20T14:40:47;11.20;;;7.60;;
15285;SDS011;7744;52.172;10.668;2022-11-20T14:43:23;10.20;;;7.47;;
15285;SDS011;7744;52.172;10.668;2022-11-20T14:45:55;10.83;;;7.97;;
15285;SDS011;7744;52.172;10.668;2022-11-20T14:48:38;10.10;;;7.97;;
15285;SDS011;7744;52.172;10.668;2022-11-20T14:51:12;9.00;;;7.50;;
15285;SDS011;7744;52.172;10.668;2022-11-20T14:53:51;9.87;;;8.00;;
15285;SDS011;7744;52.172;10.668;2022-11-20T14:56:20;10.20;;;7.87;;
15285;SDS011;7744;52.172;10.668;2022-11-20T14:58:59;11.30;;;8.53;;
15285;SDS011;7744;52.172;10.668;2022-11-20T15:01:25;10.57;;;8.10;;
15285;SDS011;7744;52.172;10.668;2022-11-20T15:04:09;10.73;;;8.00;;
15285;SDS011;7744;52.172;10.668;2022-11-20T15:06:37;9.93;;;7.63;;
15285;SDS011;7744;52.172;10.668;2022-11-20T15:09:03;9.77;;;8.20;;
15285;SDS011;7744;52.172;10.668;2022-11-20T15:11:33;10.47;;;7.93;;
15285;SDS011;7744;52.172;10.668;2022-11-20T15:14:08;11.50;;;8.77;;
15285;SDS011;7744;52.172;10.668;2022-11-20T15:16:34;10.27;;;7.93;;
15285;SDS011;7744;52.172;10.668;2022-11-20T15:19:00;9.17;;;7.93;;
15285;SDS011;7744;52.172;10.668;2022-11-20T15:21:28;10.93;;;8.53;;
15285;SDS011;7744;52.172;10.668;2022-11-20T15:23:54;13.80;;;8.87;;
15285;SDS011;7744;52.172;10.668;2022-11-20T15:26:22;10.30;;;7.67;;
15285;SDS011;7744;52.172;10.668;2022-11-20T15:28:50;10.07;;;8.57;;
15285;SDS011;7744;52.172;10.668;2022-11-20T15:31:18;10.73;;;8.60;;
15285;SDS011;7744;52.172;10.668;2022-11-20T15:33:45;11.63;;;9.20;;
15285;SDS011;7744;52.172;10.668;2022-11-20T15:36:11;11.40;;;8.93;;
15285;SDS011;7744;52.172;10.668;2022-11-20T15:38:37;12.32;;;9.60;;
15285;SDS011;7744;52.172;10.668;2022-11-20T15:41:03;12.03;;;9.23;;
15285;SDS011;7744;52.172;10.668;2022-11-20T15:43:28;11.77;;;9.27;;
15285;SDS011;7744;52.172;10.668;2022-11-20T15:45:55;12.33;;;9.40;;
15285;SDS011;7744;52.172;10.668;2022-11-20T15:48:38;11.60;;;9.53;;
15285;SDS011;7744;52.172;10.668;2022-11-20T15:53:48;14.77;;;11.13;;
15285;SDS011;7744;52.172;10.668;2022-11-20T15:56:14;14.87;;;10.87;;
15285;SDS011;7744;52.172;10.668;2022-11-20T15:58:40;12.63;;;9.63;;
15285;SDS011;7744;52.172;10.668;2022-11-20T16:01:10;16.00;;;10.43;;
15285;SDS011;7744;52.172;10.668;2022-11-20T16:03:36;15.93;;;11.63;;
15285;SDS011;7744;52.172;10.668;2022-11-20T16:06:02;19.07;;;12.67;;
15285;SDS011;7744;52.172;10.668;2022-11-20T16:08:28;17.07;;;12.90;;
15285;SDS011;7744;52.172;10.668;2022-11-20T16:10:53;23.00;;;16.53;;
15285;SDS011;7744;52.172;10.668;2022-11-20T16:13:19;21.70;;;13.67;;